Costa Victoria — IBLC — position and weather

sailwx.info

Track history (hours):
 
Tides and Currents Weather Stations Pressure Air Temp Water Temp Dewpoint Dewpoint Depression Visibility Wind Speed Wind Dir Waves Ship Positions

Costa Victoria

Last reported at 2017-Sep-19 07:34 UTC. Time now 2017-Sep-22 06:21 UTC.
Position N 21°49' E 120°19'.

Length 253 m; draft 8 m.

Type: Ship. MMSI: 247109000.

Date/timePositionNaut miles runAvg speedWind from/ knotsBaromVisibWave heightAir tempDewpointWater temp
2017-Sep-19 07:34N 21°49' E 120°19'318.5
2017-Sep-19 07:25N 21°49' E 120°16'1118.1
2017-Sep-19 06:48N 21°49' E 120°04'16318.2
2017-Sep-18 21:49N 21°47' E 117°08'4818.2
2017-Sep-18 19:12N 21°47' E 116°17'418.0
2017-Sep-18 19:00N 21°47' E 116°13'1017.6
2017-Sep-18 18:27N 21°47' E 116°03'817.4
2017-Sep-18 18:00N 21°47' E 115°54'1217.6
2017-Sep-18 17:20N 21°46' E 115°41'717.8
2017-Sep-18 16:58N 21°46' E 115°34'11013.4
2017-Sep-18 08:45N 22°28' E 113°45'614.3
2017-Sep-18 08:20N 22°34' E 113°43'3 9.2
2017-Sep-18 08:01N 22°37' E 113°42'0 0.1
2017-Sep-18 06:47N 22°37' E 113°41'0 0.0
2017-Sep-18 06:29N 22°37' E 113°41'0 0.0
2017-Sep-18 05:59N 22°37' E 113°41'0 0.0
2017-Sep-18 05:29N 22°37' E 113°41'0 0.1
2017-Sep-18 04:56N 22°37' E 113°41'0 0.0
2017-Sep-18 02:32N 22°37' E 113°41'0 0.0
2017-Sep-17 23:35N 22°37' E 113°41'0 0.3
2017-Sep-17 23:30N 22°37' E 113°41'4 7.8
2017-Sep-17 23:00N 22°33' E 113°44'814.9
2017-Sep-17 22:28N 22°25' E 113°46'1014.9
2017-Sep-17 21:50N 22°16' E 113°49'21 2.5
2017-Sep-17 13:13N 22°18' E 114°11'1 6.9
2017-Sep-17 13:00N 22°18' E 114°10'0 0.4
2017-Sep-17 12:30N 22°18' E 114°10'0 0.0
2017-Sep-17 12:01N 22°18' E 114°10'0 0.0
2017-Sep-17 11:30N 22°18' E 114°10'0 0.0
2017-Sep-17 11:00N 22°18' E 114°10'0 0.0
2017-Sep-17 10:30N 22°18' E 114°10'0 0.0
2017-Sep-17 10:00N 22°18' E 114°10'0 0.0
2017-Sep-17 09:30N 22°18' E 114°10'0 0.0
2017-Sep-17 08:57N 22°18' E 114°10'0 0.0
2017-Sep-17 08:31N 22°18' E 114°10'0 0.0
2017-Sep-17 08:01N 22°18' E 114°10'0 0.0
2017-Sep-17 07:31N 22°18' E 114°10'0 0.0
2017-Sep-17 07:00N 22°18' E 114°10'0 0.0
2017-Sep-17 06:30N 22°18' E 114°10'0 0.0
2017-Sep-17 06:00N 22°18' E 114°10'1 2.9
2017-Sep-17 05:30N 22°18' E 114°12'  
2017-Sep-13 14:37N 22°18' E 114°11'1 7.7
2017-Sep-13 14:30N 22°17' E 114°11'1 1.4
2017-Sep-13 14:00N 22°18' E 114°10'0 0.0
2017-Sep-13 13:30N 22°18' E 114°10'0 0.0
2017-Sep-13 13:00N 22°18' E 114°10'0 0.0
2017-Sep-13 12:30N 22°18' E 114°10'0 0.0
2017-Sep-13 12:00N 22°18' E 114°10'0 0.0
2017-Sep-13 11:30N 22°18' E 114°10'0 0.0
2017-Sep-13 11:00N 22°18' E 114°10'0 0.0
2017-Sep-13 10:30N 22°18' E 114°10'0 0.0
2017-Sep-13 10:00N 22°18' E 114°10'0 0.0
2017-Sep-13 09:30N 22°18' E 114°10'0 0.0
2017-Sep-13 09:00N 22°18' E 114°10'0 0.0
2017-Sep-13 08:30N 22°18' E 114°10'0 0.0
2017-Sep-13 08:00N 22°18' E 114°10'0 0.0
2017-Sep-13 07:30N 22°18' E 114°10'0 0.0
2017-Sep-13 07:00N 22°18' E 114°10'0 0.0
2017-Sep-13 06:30N 22°18' E 114°10'0 0.1
2017-Sep-13 06:01N 22°18' E 114°10'33017.0
2017-Sep-12 10:39N 22°38' E 120°06'317.0
2017-Sep-12 10:30N 22°38' E 120°09'510.3
2017-Sep-12 10:00N 22°37' E 120°14'3 5.0
2017-Sep-12 09:30N 22°37' E 120°17'0 0.0
2017-Sep-12 08:58N 22°37' E 120°17'0 0.0
2017-Sep-12 08:28N 22°37' E 120°17'0 0.0
2017-Sep-12 07:58N 22°37' E 120°17'0 0.0
2017-Sep-12 07:28N 22°37' E 120°17'0 0.0
2017-Sep-12 06:58N 22°37' E 120°17'0 0.0
2017-Sep-12 06:28N 22°37' E 120°17'0 0.0
2017-Sep-12 05:58N 22°37' E 120°17'0 0.0
2017-Sep-12 05:28N 22°37' E 120°17'0 0.0
2017-Sep-12 04:58N 22°37' E 120°17'0 0.0
2017-Sep-12 04:25N 22°37' E 120°17'0 0.0
2017-Sep-12 03:58N 22°37' E 120°17'0 0.0
2017-Sep-12 03:28N 22°37' E 120°17'0 0.0
2017-Sep-12 02:58N 22°37' E 120°17'0 0.0
2017-Sep-12 02:28N 22°37' E 120°17'0 0.0
2017-Sep-12 01:50N 22°37' E 120°17'0 0.6
2017-Sep-12 01:30N 22°37' E 120°17'4 7.8
2017-Sep-12 01:00N 22°37' E 120°13'611.8
2017-Sep-12 00:30N 22°31' E 120°13'918.8
2017-Sep-12 00:01N 22°23' E 120°16'170 4.7
2017-Sep-10 12:10N 25°09' E 120°56'1919.5
2017-Sep-10 11:11N 25°01' E 120°36'420.1
2017-Sep-10 11:00N 24°59' E 120°32'1119.8
2017-Sep-10 10:25N 24°54' E 120°21'919.7
2017-Sep-10 09:59N 24°49' E 120°13'1019.5
2017-Sep-10 09:28N 24°44' E 120°04'919.3
2017-Sep-10 09:00N 24°39' E 119°55'1718.6
2017-Sep-10 08:06N 24°29' E 119°41'318.1
2017-Sep-10 07:56N 24°27' E 119°38'918.4
2017-Sep-10 07:25N 24°22' E 119°29'918.4
2017-Sep-10 06:56N 24°16' E 119°22'4118.2
2017-Sep-10 04:41N 23°51' E 118°47'13619.3
2017-Sep-09 21:38N 22°36' E 116°43'317.6
2017-Sep-09 21:26N 22°35' E 116°39'13717.3
2017-Sep-09 13:29N 22°18' E 114°12'2 3.3
2017-Sep-09 12:55N 22°18' E 114°10'0 0.0
2017-Sep-09 12:28N 22°18' E 114°10'0 0.0
2017-Sep-09 11:58N 22°18' E 114°10'0 0.0
2017-Sep-09 11:28N 22°18' E 114°10'0 0.0
2017-Sep-09 10:58N 22°18' E 114°10'0 0.0
2017-Sep-09 10:31N 22°18' E 114°10'0 0.0
2017-Sep-09 09:58N 22°18' E 114°10'0 0.0
2017-Sep-09 09:28N 22°18' E 114°10'0 0.0
2017-Sep-09 08:58N 22°18' E 114°10'0 0.0
2017-Sep-09 08:28N 22°18' E 114°10'0 0.0
2017-Sep-09 07:58N 22°18' E 114°10'  
Track history (hours):
 
Tides and Currents Weather Stations Pressure Air Temp Water Temp Dewpoint Dewpoint Depression Visibility Wind Speed Wind Dir Waves Ship Positions

Costa Victoria

Last reported at 2017-Sep-19 07:34 UTC. Time now 2017-Sep-22 06:21 UTC.
Position N 21°49' E 120°19'.

Length 253 m; draft 8 m.

Type: Ship. MMSI: 247109000.

Date/timePositionNaut miles runAvg speedWind from/ knotsBaromVisibWave heightAir tempDewpointWater temp
2017-Sep-19 07:34N 21°49' E 120°19'318.5
2017-Sep-19 07:25N 21°49' E 120°16'1118.1
2017-Sep-19 06:48N 21°49' E 120°04'16318.2
2017-Sep-18 21:49N 21°47' E 117°08'4818.2
2017-Sep-18 19:12N 21°47' E 116°17'418.0
2017-Sep-18 19:00N 21°47' E 116°13'1017.6
2017-Sep-18 18:27N 21°47' E 116°03'817.4
2017-Sep-18 18:00N 21°47' E 115°54'1217.6
2017-Sep-18 17:20N 21°46' E 115°41'717.8
2017-Sep-18 16:58N 21°46' E 115°34'11013.4
2017-Sep-18 08:45N 22°28' E 113°45'614.3
2017-Sep-18 08:20N 22°34' E 113°43'3 9.2
2017-Sep-18 08:01N 22°37' E 113°42'0 0.1
2017-Sep-18 06:47N 22°37' E 113°41'0 0.0
2017-Sep-18 06:29N 22°37' E 113°41'0 0.0
2017-Sep-18 05:59N 22°37' E 113°41'0 0.0
2017-Sep-18 05:29N 22°37' E 113°41'0 0.1
2017-Sep-18 04:56N 22°37' E 113°41'0 0.0
2017-Sep-18 02:32N 22°37' E 113°41'0 0.0
2017-Sep-17 23:35N 22°37' E 113°41'0 0.3
2017-Sep-17 23:30N 22°37' E 113°41'4 7.8
2017-Sep-17 23:00N 22°33' E 113°44'814.9
2017-Sep-17 22:28N 22°25' E 113°46'1014.9
2017-Sep-17 21:50N 22°16' E 113°49'21 2.5
2017-Sep-17 13:13N 22°18' E 114°11'1 6.9
2017-Sep-17 13:00N 22°18' E 114°10'0 0.4
2017-Sep-17 12:30N 22°18' E 114°10'0 0.0
2017-Sep-17 12:01N 22°18' E 114°10'0 0.0
2017-Sep-17 11:30N 22°18' E 114°10'0 0.0
2017-Sep-17 11:00N 22°18' E 114°10'0 0.0
2017-Sep-17 10:30N 22°18' E 114°10'0 0.0
2017-Sep-17 10:00N 22°18' E 114°10'0 0.0
2017-Sep-17 09:30N 22°18' E 114°10'0 0.0
2017-Sep-17 08:57N 22°18' E 114°10'0 0.0
2017-Sep-17 08:31N 22°18' E 114°10'0 0.0
2017-Sep-17 08:01N 22°18' E 114°10'0 0.0
2017-Sep-17 07:31N 22°18' E 114°10'0 0.0
2017-Sep-17 07:00N 22°18' E 114°10'0 0.0
2017-Sep-17 06:30N 22°18' E 114°10'0 0.0
2017-Sep-17 06:00N 22°18' E 114°10'1 2.9
2017-Sep-17 05:30N 22°18' E 114°12'  
2017-Sep-13 14:37N 22°18' E 114°11'1 7.7
2017-Sep-13 14:30N 22°17' E 114°11'1 1.4
2017-Sep-13 14:00N 22°18' E 114°10'0 0.0
2017-Sep-13 13:30N 22°18' E 114°10'0 0.0
2017-Sep-13 13:00N 22°18' E 114°10'0 0.0
2017-Sep-13 12:30N 22°18' E 114°10'0 0.0
2017-Sep-13 12:00N 22°18' E 114°10'0 0.0
2017-Sep-13 11:30N 22°18' E 114°10'0 0.0
2017-Sep-13 11:00N 22°18' E 114°10'0 0.0
2017-Sep-13 10:30N 22°18' E 114°10'0 0.0
2017-Sep-13 10:00N 22°18' E 114°10'0 0.0
2017-Sep-13 09:30N 22°18' E 114°10'0 0.0
2017-Sep-13 09:00N 22°18' E 114°10'0 0.0
2017-Sep-13 08:30N 22°18' E 114°10'0 0.0
2017-Sep-13 08:00N 22°18' E 114°10'0 0.0
2017-Sep-13 07:30N 22°18' E 114°10'0 0.0
2017-Sep-13 07:00N 22°18' E 114°10'0 0.0
2017-Sep-13 06:30N 22°18' E 114°10'0 0.1
2017-Sep-13 06:01N 22°18' E 114°10'33017.0
2017-Sep-12 10:39N 22°38' E 120°06'317.0
2017-Sep-12 10:30N 22°38' E 120°09'510.3
2017-Sep-12 10:00N 22°37' E 120°14'3 5.0
2017-Sep-12 09:30N 22°37' E 120°17'0 0.0
2017-Sep-12 08:58N 22°37' E 120°17'0 0.0
2017-Sep-12 08:28N 22°37' E 120°17'0 0.0
2017-Sep-12 07:58N 22°37' E 120°17'0 0.0
2017-Sep-12 07:28N 22°37' E 120°17'0 0.0
2017-Sep-12 06:58N 22°37' E 120°17'0 0.0
2017-Sep-12 06:28N 22°37' E 120°17'0 0.0
2017-Sep-12 05:58N 22°37' E 120°17'0 0.0
2017-Sep-12 05:28N 22°37' E 120°17'0 0.0
2017-Sep-12 04:58N 22°37' E 120°17'0 0.0
2017-Sep-12 04:25N 22°37' E 120°17'0 0.0
2017-Sep-12 03:58N 22°37' E 120°17'0 0.0
2017-Sep-12 03:28N 22°37' E 120°17'0 0.0
2017-Sep-12 02:58N 22°37' E 120°17'0 0.0
2017-Sep-12 02:28N 22°37' E 120°17'0 0.0
2017-Sep-12 01:50N 22°37' E 120°17'0 0.6
2017-Sep-12 01:30N 22°37' E 120°17'4 7.8
2017-Sep-12 01:00N 22°37' E 120°13'611.8
2017-Sep-12 00:30N 22°31' E 120°13'918.8
2017-Sep-12 00:01N 22°23' E 120°16'170 4.7
2017-Sep-10 12:10N 25°09' E 120°56'1919.5
2017-Sep-10 11:11N 25°01' E 120°36'420.1
2017-Sep-10 11:00N 24°59' E 120°32'1119.8
2017-Sep-10 10:25N 24°54' E 120°21'919.7
2017-Sep-10 09:59N 24°49' E 120°13'1019.5
2017-Sep-10 09:28N 24°44' E 120°04'919.3
2017-Sep-10 09:00N 24°39' E 119°55'1718.6
2017-Sep-10 08:06N 24°29' E 119°41'318.1
2017-Sep-10 07:56N 24°27' E 119°38'918.4
2017-Sep-10 07:25N 24°22' E 119°29'918.4
2017-Sep-10 06:56N 24°16' E 119°22'4118.2
2017-Sep-10 04:41N 23°51' E 118°47'13619.3
2017-Sep-09 21:38N 22°36' E 116°43'317.6
2017-Sep-09 21:26N 22°35' E 116°39'13717.3
2017-Sep-09 13:29N 22°18' E 114°12'2 3.3
2017-Sep-09 12:55N 22°18' E 114°10'0 0.0
2017-Sep-09 12:28N 22°18' E 114°10'0 0.0
2017-Sep-09 11:58N 22°18' E 114°10'0 0.0
2017-Sep-09 11:28N 22°18' E 114°10'0 0.0
2017-Sep-09 10:58N 22°18' E 114°10'0 0.0
2017-Sep-09 10:31N 22°18' E 114°10'0 0.0
2017-Sep-09 09:58N 22°18' E 114°10'0 0.0
2017-Sep-09 09:28N 22°18' E 114°10'0 0.0
2017-Sep-09 08:58N 22°18' E 114°10'0 0.0
2017-Sep-09 08:28N 22°18' E 114°10'0 0.0
2017-Sep-09 07:58N 22°18' E 114°10'  

Dump ship's entire track history